Accueil
METAR-TAF:

METAR-TAF

Aéroports :

Mobile, Alabama, États-Unis

latitude: 30-36-50N, longitude: 088-03-48W, altitude: 7 m

Observation

Le bulletin a été fait il y a 31 minutes, à 21:53 UTC
Vent 10 kt de nord
Température 23°C
Humidité 19%
Pression 1020 hPa
Visibilité: 16.1 km
Ciel clair

METAR: KBFM 222153Z 01010KT 10SM CLR 23/M02 A3013 RMK AO2 SLP203 T02281017

Heure: 17:24 (22:24 UTC)

Prévision

Le bulletin a été fait il y a 5 heures et 4 minutes, à 17:20 UTC
Prévision valable du 22 à 18 UTC au 23 à 18 UTC
Vent 11 kt de nord/nord-est avec des rafales jusqu'à 18 kt
Visibilité: 10 km
Ciel clair
A partir de 23 à 0000 UTC
Vent 6 kt de nord
Visibilité: 10 km
Ciel clair
A partir de 23 à 1200 UTC
Vent 6 kt de est
Visibilité: 10 km
Ciel clair

TAF: KBFM 221720Z 2218/2318 02011G18KT P6SM SKC FM230000 01006KT P6SM SKC FM231200 08006KT P6SM SKC

Observations et prévisions météorologiques de plus de 4000 aéroports (messages METAR et TAF).

Les stations disponibles sont représentées par des disques jaunes et rouges sur la carte.

Passer la souris dessus pour voir le nom de la station.

Cliquer dessus pour voir les observations et prévisions météorologiques.

Pour changer de carte: cliquez sur les boutons verts avec une croix noire pour zoomer, sur le bouton vert avec un tiret pour effectuer un zoom arrière, ou sur les flèches vertes pour les cartes adjacentes.


METAR-TAF: